createdAt,value
2022-11-22T00:01:51.290Z,88.90
2022-11-22T00:04:19.180Z,89.41
2022-11-22T00:09:39.224Z,89.79
2022-11-22T00:12:11.184Z,89.62
2022-11-22T00:17:57.305Z,89.86
2022-11-22T00:20:25.262Z,89.51
2022-11-22T00:22:53.539Z,88.82
2022-11-22T00:25:47.574Z,88.78
2022-11-22T00:28:15.153Z,88.34
2022-11-22T00:30:43.200Z,87.98
2022-11-22T00:33:11.135Z,87.63
2022-11-22T00:35:39.160Z,87.88
2022-11-22T00:38:07.163Z,88.60
2022-11-22T00:40:35.112Z,88.47
2022-11-22T00:43:08.669Z,88.74
2022-11-22T00:45:41.970Z,88.96
2022-11-22T00:48:14.415Z,88.85
2022-11-22T00:50:41.168Z,88.51
2022-11-22T00:53:09.243Z,89.80
2022-11-22T00:55:41.195Z,89.35
2022-11-22T00:58:09.152Z,88.87
2022-11-22T01:00:37.304Z,89.07
2022-11-22T01:03:05.668Z,88.78
2022-11-22T01:05:58.316Z,89.60
2022-11-22T01:08:25.238Z,89.54
2022-11-22T01:11:18.610Z,89.22
2022-11-22T01:13:47.378Z,88.84
2022-11-22T01:16:15.909Z,89.03
2022-11-22T01:18:43.758Z,89.18
2022-11-22T01:21:11.781Z,89.70
2022-11-22T01:23:39.287Z,89.69
2022-11-22T01:26:08.952Z,89.75
2022-11-22T01:28:37.172Z,89.74
2022-11-22T01:31:05.148Z,89.48
2022-11-22T01:33:33.132Z,90.15
2022-11-22T01:36:05.272Z,90.16
2022-11-22T01:38:33.168Z,90.08
2022-11-22T01:41:01.168Z,89.82
2022-11-22T01:43:29.187Z,90.06
2022-11-22T01:45:59.016Z,90.11
2022-11-22T01:48:52.093Z,90.25
2022-11-22T01:51:29.968Z,89.82
2022-11-22T01:54:00.901Z,89.91
2022-11-22T01:56:30.193Z,90.55
2022-11-22T01:59:02.470Z,90.29
2022-11-22T02:01:30.064Z,90.19
2022-11-22T02:03:59.616Z,90.56
2022-11-22T02:06:46.825Z,90.79
2022-11-22T02:12:11.199Z,89.95
2022-11-22T02:14:40.436Z,89.91
2022-11-22T02:17:07.347Z,90.53
2022-11-22T02:19:49.333Z,90.09
2022-11-22T02:22:22.985Z,90.31
2022-11-22T02:24:59.609Z,90.28
2022-11-22T02:27:27.258Z,90.93
2022-11-22T02:29:57.145Z,90.60
2022-11-22T02:32:25.156Z,90.71
2022-11-22T02:34:53.203Z,90.69
2022-11-22T02:37:25.511Z,90.44
2022-11-22T02:39:58.842Z,90.85
2022-11-22T02:42:30.026Z,90.92
2022-11-22T02:44:57.097Z,90.90
2022-11-22T02:47:25.842Z,90.76
2022-11-22T02:49:53.898Z,90.48
2022-11-22T02:55:13.143Z,90.02
2022-11-22T02:57:41.113Z,90.20
2022-11-22T03:00:09.874Z,90.37
2022-11-22T03:02:43.197Z,90.59
2022-11-22T03:05:15.188Z,90.96
2022-11-22T03:07:43.418Z,90.65
2022-11-22T03:10:11.316Z,90.13
2022-11-22T03:12:39.152Z,90.66
2022-11-22T03:15:07.440Z,90.58
2022-11-22T03:17:41.172Z,90.11
2022-11-22T03:20:09.621Z,90.16
2022-11-22T03:22:37.193Z,90.61
2022-11-22T03:25:05.746Z,89.83
2022-11-22T03:27:38.134Z,90.25
2022-11-22T03:30:05.846Z,90.66
2022-11-22T03:32:59.177Z,90.91
2022-11-22T03:35:27.134Z,90.82
2022-11-22T03:38:00.134Z,90.71
2022-11-22T03:40:27.134Z,90.50
2022-11-22T03:49:12.010Z,90.01
2022-11-22T03:51:44.244Z,89.79
2022-11-22T03:54:11.175Z,89.85
2022-11-22T03:56:39.205Z,90.31
2022-11-22T03:59:11.263Z,90.51
2022-11-22T04:01:39.255Z,90.27
2022-11-22T04:07:04.256Z,89.31
2022-11-22T04:09:31.458Z,89.26
2022-11-22T04:11:59.193Z,88.62
2022-11-22T04:14:45.480Z,89.24
2022-11-22T04:17:14.264Z,89.62
2022-11-22T04:20:01.129Z,89.77
2022-11-22T04:22:34.186Z,89.90
2022-11-22T04:25:16.329Z,89.82
2022-11-22T04:27:49.171Z,90.48
2022-11-22T04:30:20.485Z,90.39
2022-11-22T04:32:54.572Z,90.52
2022-11-22T04:35:23.149Z,90.48
2022-11-22T04:37:51.759Z,90.34
2022-11-22T04:40:19.148Z,90.79
2022-11-22T04:43:05.767Z,90.59
2022-11-22T04:45:33.156Z,90.61
2022-11-22T04:48:01.208Z,90.72
2022-11-22T04:50:49.423Z,91.14
2022-11-22T04:53:18.160Z,91.15
2022-11-22T04:55:47.143Z,90.93
2022-11-22T04:58:40.947Z,90.70
2022-11-22T05:01:09.885Z,90.40
2022-11-22T05:04:03.213Z,90.66
2022-11-22T05:06:31.115Z,90.87
2022-11-22T05:08:59.131Z,90.95
2022-11-22T05:11:27.116Z,90.94
2022-11-22T05:13:55.169Z,91.09
2022-11-22T05:16:23.131Z,90.65
2022-11-22T05:18:59.376Z,90.73
2022-11-22T05:21:28.694Z,89.93
2022-11-22T05:23:57.238Z,90.13
2022-11-22T05:26:53.262Z,90.40
2022-11-22T05:29:26.282Z,90.93
2022-11-22T05:31:53.201Z,91.09
2022-11-22T05:34:25.143Z,90.93
2022-11-22T05:36:53.329Z,90.45
2022-11-22T05:39:25.163Z,89.69
2022-11-22T05:41:56.194Z,89.57
2022-11-22T05:44:24.050Z,89.78
2022-11-22T05:46:51.264Z,89.27
2022-11-22T05:52:37.231Z,90.06
2022-11-22T05:55:08.610Z,90.44
2022-11-22T05:57:38.095Z,89.85
2022-11-22T06:00:09.356Z,89.80
2022-11-22T06:02:40.572Z,89.39
2022-11-22T06:05:11.100Z,89.63
2022-11-22T06:07:44.206Z,90.18
2022-11-22T06:10:11.400Z,90.34
2022-11-22T06:15:31.118Z,90.33
2022-11-22T06:18:03.176Z,90.43
2022-11-22T06:20:31.087Z,90.38
2022-11-22T06:23:03.172Z,90.55
2022-11-22T06:25:32.347Z,90.62
2022-11-22T06:27:59.833Z,90.43
2022-11-22T06:30:33.143Z,90.52
2022-11-22T06:33:01.213Z,90.99
2022-11-22T06:35:29.123Z,91.12
2022-11-22T06:38:00.620Z,90.79
2022-11-22T06:40:34.140Z,90.65
2022-11-22T06:43:01.096Z,90.62
2022-11-22T06:48:21.103Z,90.44
2022-11-22T06:50:58.842Z,91.14
2022-11-22T06:53:46.266Z,90.96
2022-11-22T06:56:18.484Z,91.02
2022-11-22T06:58:46.360Z,91.29
2022-11-22T07:01:24.430Z,91.47
2022-11-22T07:03:58.286Z,91.43
2022-11-22T07:06:34.219Z,91.60
2022-11-22T07:09:02.275Z,91.65
2022-11-22T07:11:31.281Z,91.63
2022-11-22T07:14:05.449Z,91.63
2022-11-22T07:16:35.783Z,91.51
2022-11-22T07:19:08.422Z,91.56
2022-11-22T07:21:37.177Z,91.52
2022-11-22T07:24:06.627Z,91.89
2022-11-22T07:26:35.495Z,91.50
2022-11-22T07:29:27.317Z,91.72
2022-11-22T07:32:20.738Z,92.33
2022-11-22T07:34:54.283Z,91.92
2022-11-22T07:37:26.112Z,92.06
2022-11-22T07:39:54.132Z,91.60
2022-11-22T07:42:25.325Z,91.75
2022-11-22T07:44:55.292Z,92.32
2022-11-22T07:47:23.334Z,92.13
2022-11-22T07:49:55.116Z,92.31
2022-11-22T07:52:23.100Z,91.71
2022-11-22T07:55:17.878Z,92.31
2022-11-22T07:57:46.916Z,92.27
2022-11-22T08:00:17.138Z,92.26
2022-11-22T08:02:46.993Z,92.01
2022-11-22T08:05:16.916Z,91.80
2022-11-22T08:07:52.910Z,91.85
2022-11-22T08:10:21.780Z,92.17
2022-11-22T08:12:49.090Z,92.11
2022-11-22T08:15:17.659Z,92.39
2022-11-22T08:17:45.165Z,92.08
2022-11-22T08:20:13.446Z,92.05
2022-11-22T08:22:46.166Z,92.13
2022-11-22T08:25:13.107Z,91.89
2022-11-22T08:27:42.789Z,91.92
2022-11-22T08:30:11.700Z,91.55
2022-11-22T08:32:39.087Z,91.52
2022-11-22T08:35:07.500Z,91.84
2022-11-22T08:37:40.397Z,91.61
2022-11-22T08:40:07.718Z,90.72
2022-11-22T08:42:40.134Z,90.78
2022-11-22T08:45:08.088Z,90.59
2022-11-22T08:47:35.113Z,91.14
2022-11-22T08:50:03.387Z,91.21
2022-11-22T08:52:31.105Z,91.26
2022-11-22T08:55:28.223Z,91.11
2022-11-22T08:57:59.411Z,91.43
2022-11-22T09:03:19.087Z,90.39
2022-11-22T09:12:15.090Z,89.65
2022-11-22T09:14:43.137Z,89.90
2022-11-22T09:17:18.065Z,90.62
2022-11-22T09:20:12.346Z,90.10
2022-11-22T09:22:39.596Z,90.48
2022-11-22T09:25:07.456Z,90.11
2022-11-22T09:27:35.694Z,90.45
2022-11-22T09:30:03.377Z,90.36
2022-11-22T09:32:36.426Z,90.78
2022-11-22T09:35:09.297Z,90.55
2022-11-22T09:37:37.125Z,90.48
2022-11-22T09:40:05.668Z,90.48
2022-11-22T09:42:59.345Z,90.71
2022-11-22T09:45:54.303Z,90.12
2022-11-22T09:51:37.590Z,90.94
2022-11-22T09:54:07.568Z,91.13
2022-11-22T09:56:36.419Z,91.04
2022-11-22T09:59:09.229Z,90.76
2022-11-22T10:02:25.622Z,90.30
2022-11-22T10:08:26.275Z,90.86
2022-11-22T10:11:37.953Z,90.23
2022-11-22T10:14:16.062Z,90.38
2022-11-22T10:16:56.328Z,90.27
2022-11-22T10:19:50.651Z,90.88
2022-11-22T10:22:24.289Z,90.09
2022-11-22T10:24:58.713Z,90.63
2022-11-22T10:30:25.621Z,90.02
2022-11-22T10:33:04.492Z,90.06
2022-11-22T10:35:39.422Z,90.55
2022-11-22T10:42:02.137Z,91.14
2022-11-22T10:47:54.040Z,90.85
2022-11-22T10:50:41.337Z,90.85
2022-11-22T10:53:18.108Z,91.04
2022-11-22T10:56:28.908Z,90.81
2022-11-22T10:59:15.704Z,90.68
2022-11-22T11:01:51.798Z,90.72
2022-11-22T11:04:21.035Z,90.87
2022-11-22T11:07:15.419Z,90.80
2022-11-22T11:12:45.801Z,91.05
2022-11-22T11:15:20.014Z,90.90
2022-11-22T11:18:06.424Z,90.52
2022-11-22T11:20:38.922Z,90.09
2022-11-22T11:23:17.048Z,90.30
2022-11-22T11:25:49.385Z,90.52
2022-11-22T11:28:19.539Z,90.51
2022-11-22T11:30:51.401Z,90.26
2022-11-22T11:33:25.290Z,90.95
2022-11-22T11:36:08.203Z,90.80
2022-11-22T11:38:52.539Z,90.55
2022-11-22T11:41:24.209Z,90.69
2022-11-22T11:44:02.877Z,90.33
2022-11-22T11:46:40.242Z,90.66
2022-11-22T11:49:14.606Z,91.08
2022-11-22T11:52:18.912Z,90.80
2022-11-22T11:54:52.091Z,90.26
2022-11-22T11:57:31.242Z,89.96
2022-11-22T12:00:01.805Z,91.44
2022-11-22T12:02:38.793Z,91.31
2022-11-22T12:05:28.836Z,91.35
2022-11-22T12:08:02.414Z,91.08
2022-11-22T12:10:49.735Z,91.32
2022-11-22T12:16:44.704Z,91.26
2022-11-22T12:19:26.643Z,91.18
2022-11-22T12:22:03.062Z,90.84
2022-11-22T12:24:57.301Z,91.60
2022-11-22T12:27:27.155Z,91.83
2022-11-22T12:29:55.158Z,92.31
2022-11-22T12:32:40.255Z,92.04
2022-11-22T12:35:23.655Z,91.57
2022-11-22T12:38:01.709Z,91.17
2022-11-22T12:40:38.485Z,90.59
2022-11-22T12:43:17.125Z,91.42
2022-11-22T12:45:51.056Z,92.09
2022-11-22T12:51:57.489Z,92.24
2022-11-22T12:57:40.844Z,92.00
2022-11-22T13:00:16.706Z,91.70
2022-11-22T13:02:59.141Z,91.40
2022-11-22T13:05:57.983Z,90.91
2022-11-22T13:08:35.760Z,91.66
2022-11-22T13:14:34.338Z,91.19
2022-11-22T13:17:06.507Z,91.70
2022-11-22T13:19:46.377Z,91.72
2022-11-22T13:22:33.120Z,91.73
2022-11-22T13:28:40.072Z,91.18
2022-11-22T13:31:17.159Z,90.76
2022-11-22T13:33:57.570Z,91.40
2022-11-22T13:36:33.297Z,91.09
2022-11-22T13:39:15.882Z,90.53
2022-11-22T13:42:02.432Z,91.29
2022-11-22T13:44:31.259Z,91.00
2022-11-22T13:47:04.545Z,90.35
2022-11-22T13:49:49.223Z,89.89
2022-11-22T13:52:22.092Z,90.00
2022-11-22T13:54:56.847Z,89.57
2022-11-22T13:57:43.509Z,90.01
2022-11-22T14:00:42.873Z,90.42
2022-11-22T14:03:40.242Z,90.12
2022-11-22T14:06:28.596Z,89.55
2022-11-22T14:09:36.877Z,89.08
2022-11-22T14:12:16.140Z,89.11
2022-11-22T14:15:19.208Z,89.36
2022-11-22T14:18:10.443Z,89.77
2022-11-22T14:21:09.008Z,90.01
2022-11-22T14:24:11.453Z,89.80
2022-11-22T14:27:20.602Z,90.01
2022-11-22T14:30:12.849Z,90.17
2022-11-22T14:32:47.055Z,90.04
2022-11-22T14:35:18.636Z,90.25
2022-11-22T14:37:59.548Z,90.59
2022-11-22T14:40:36.187Z,90.53
2022-11-22T14:43:21.633Z,90.45
2022-11-22T14:45:55.276Z,90.47
2022-11-22T14:48:33.583Z,90.40
2022-11-22T14:51:04.072Z,91.43
2022-11-22T14:53:45.728Z,91.33
2022-11-22T14:56:30.116Z,91.27
2022-11-22T14:59:28.370Z,90.87
2022-11-22T15:02:24.469Z,90.56
2022-11-22T15:09:12.786Z,90.79
2022-11-22T15:09:19.630Z,90.63
2022-11-22T15:11:42.763Z,90.71
2022-11-22T15:14:34.425Z,90.89
2022-11-22T15:58:13.559Z,89.90
2022-11-22T16:00:44.219Z,89.34
2022-11-22T16:03:22.798Z,89.20
2022-11-22T16:06:07.208Z,89.74
2022-11-22T16:08:49.334Z,89.31
2022-11-22T16:14:40.314Z,89.26
2022-11-22T16:17:30.502Z,89.51
2022-11-22T16:20:18.970Z,89.18
2022-11-22T16:23:13.852Z,89.04
2022-11-22T16:25:51.680Z,88.90
2022-11-22T16:28:31.584Z,88.82
2022-11-22T16:31:24.599Z,88.51
2022-11-22T16:33:54.584Z,88.46
2022-11-22T16:36:24.861Z,88.88
2022-11-22T16:38:58.156Z,88.95
2022-11-22T16:41:27.064Z,88.76
2022-11-22T16:44:03.905Z,89.51
2022-11-22T16:46:31.121Z,89.19
2022-11-22T16:48:59.221Z,89.79
2022-11-22T16:51:29.355Z,89.58
2022-11-22T16:54:08.021Z,89.36
2022-11-22T16:56:37.051Z,89.36
2022-11-22T16:59:30.529Z,89.50
2022-11-22T17:01:59.740Z,89.78
2022-11-22T17:04:52.682Z,89.99
2022-11-22T17:07:21.693Z,90.31
2022-11-22T17:10:13.307Z,90.22
2022-11-22T17:12:42.379Z,89.75
2022-11-22T17:15:13.143Z,89.40
2022-11-22T17:17:41.116Z,89.14
2022-11-22T17:20:09.553Z,89.30
2022-11-22T17:22:39.250Z,89.72
2022-11-22T17:25:18.342Z,89.61
2022-11-22T17:27:49.044Z,90.42
2022-11-22T17:30:20.547Z,89.91
2022-11-22T17:33:14.178Z,89.64
2022-11-22T17:35:41.383Z,90.26
2022-11-22T17:38:11.414Z,89.54
2022-11-22T17:40:39.306Z,89.66
2022-11-22T17:43:07.118Z,89.30
2022-11-22T17:45:42.440Z,89.20
2022-11-22T17:48:12.623Z,89.68
2022-11-22T17:50:41.179Z,89.44
2022-11-22T17:53:09.242Z,89.23
2022-11-22T17:56:02.685Z,89.61
2022-11-22T17:58:31.451Z,89.04
2022-11-22T18:01:20.220Z,88.63
2022-11-22T18:03:48.502Z,88.92
2022-11-22T18:09:11.148Z,88.86
2022-11-22T18:11:39.133Z,89.08
2022-11-22T18:14:07.203Z,88.65
2022-11-22T18:16:35.208Z,88.28
2022-11-22T18:19:07.151Z,88.04
2022-11-22T18:21:35.112Z,88.59
2022-11-22T18:24:03.275Z,88.22
2022-11-22T18:26:39.850Z,87.60
2022-11-22T18:32:28.002Z,90.24
2022-11-22T18:34:59.263Z,90.02
2022-11-22T18:37:27.560Z,88.91
2022-11-22T18:40:20.702Z,89.22
2022-11-22T18:42:56.498Z,90.50
2022-11-22T18:45:50.571Z,90.75
2022-11-22T18:48:19.103Z,90.93
2022-11-22T18:51:16.312Z,91.14
2022-11-22T18:53:43.237Z,90.72
2022-11-22T18:56:13.096Z,89.58
2022-11-22T18:58:41.114Z,90.94
2022-11-22T19:01:14.573Z,90.69
2022-11-22T19:03:44.005Z,91.17
2022-11-22T19:06:19.199Z,90.31
2022-11-22T19:08:47.501Z,90.36
2022-11-22T19:11:16.147Z,89.98
2022-11-22T19:13:44.708Z,90.56
2022-11-22T19:16:21.775Z,89.62
2022-11-22T19:18:50.059Z,89.53
2022-11-22T19:21:22.572Z,90.98
2022-11-22T19:23:51.155Z,90.82
2022-11-22T19:26:21.934Z,90.50
2022-11-22T19:28:50.312Z,91.46
2022-11-22T19:31:24.763Z,90.68
2022-11-22T19:33:53.456Z,89.87
2022-11-22T19:36:26.433Z,89.89
2022-11-22T19:38:59.262Z,89.85
2022-11-22T19:41:27.235Z,91.41
2022-11-22T19:43:55.869Z,90.13
2022-11-22T19:46:24.023Z,89.87
2022-11-22T19:48:57.939Z,89.85
2022-11-22T19:51:26.597Z,89.45
2022-11-22T19:53:59.589Z,90.89
2022-11-22T19:56:32.354Z,90.54
2022-11-22T19:59:25.125Z,91.58
2022-11-22T20:01:53.099Z,91.78
2022-11-22T20:04:25.231Z,90.68
2022-11-22T20:06:53.203Z,90.84
2022-11-22T20:09:22.242Z,90.45
2022-11-22T20:11:49.230Z,91.90
2022-11-22T20:14:17.248Z,92.25
2022-11-22T20:17:09.099Z,91.74
2022-11-22T20:19:37.457Z,91.69
2022-11-22T20:22:09.098Z,91.22
2022-11-22T20:24:37.112Z,90.33
2022-11-22T20:27:10.106Z,90.68
2022-11-22T20:29:37.140Z,90.98
2022-11-22T20:32:06.209Z,91.16
2022-11-22T20:34:34.190Z,90.27
2022-11-22T20:37:02.174Z,91.56
2022-11-22T20:39:35.320Z,92.65
2022-11-22T20:42:33.132Z,92.77
2022-11-22T20:45:19.196Z,93.15
2022-11-22T20:47:47.151Z,93.21
2022-11-22T20:50:15.307Z,93.44
2022-11-22T20:52:43.155Z,93.74
2022-11-22T20:55:11.155Z,93.56
2022-11-22T20:58:03.230Z,93.22
2022-11-22T21:00:31.100Z,93.33
2022-11-22T21:03:04.152Z,92.84
2022-11-22T21:05:31.133Z,92.71
2022-11-22T21:08:05.465Z,92.85
2022-11-22T21:11:13.848Z,92.14
2022-11-22T21:13:42.230Z,92.06
2022-11-22T21:16:35.094Z,91.13
2022-11-22T21:19:07.086Z,91.73
2022-11-22T21:21:41.244Z,92.24
2022-11-22T21:24:13.701Z,92.07
2022-11-22T21:26:41.197Z,90.72
2022-11-22T21:29:17.972Z,90.83
2022-11-22T21:32:11.257Z,90.51
2022-11-22T21:34:43.181Z,90.49
2022-11-22T21:37:35.119Z,91.13
2022-11-22T21:40:03.711Z,91.52
2022-11-22T21:42:31.126Z,91.09
2022-11-22T21:44:59.643Z,90.15
2022-11-22T21:47:27.201Z,91.56
2022-11-22T21:49:55.189Z,92.57
2022-11-22T21:52:23.154Z,91.84
2022-11-22T21:54:53.765Z,92.44
2022-11-22T21:57:21.122Z,92.06
2022-11-22T21:59:49.166Z,90.65
2022-11-22T22:02:17.244Z,89.80
2022-11-22T22:04:49.115Z,89.58
2022-11-22T22:07:36.708Z,90.45
2022-11-22T22:10:09.483Z,90.50
2022-11-22T22:15:31.175Z,91.99
2022-11-22T22:18:23.301Z,91.56
2022-11-22T22:21:02.115Z,90.85
2022-11-22T22:23:35.619Z,91.27
2022-11-22T22:26:08.270Z,90.80
2022-11-22T22:28:41.423Z,90.56
2022-11-22T22:31:17.019Z,92.10
2022-11-22T22:33:45.915Z,92.16
2022-11-22T22:36:14.017Z,91.89
2022-11-22T22:38:41.731Z,91.26
2022-11-22T22:44:03.111Z,90.52
2022-11-22T22:46:31.151Z,91.12
2022-11-22T22:49:00.126Z,90.57
2022-11-22T22:51:33.664Z,91.82
2022-11-22T22:54:01.486Z,92.66
2022-11-22T22:56:56.204Z,93.01
2022-11-22T22:59:23.198Z,92.49
2022-11-22T23:01:51.148Z,92.63
2022-11-22T23:04:19.144Z,92.76
2022-11-22T23:06:52.296Z,92.77
2022-11-22T23:09:19.285Z,92.96
2022-11-22T23:12:07.854Z,92.98
2022-11-22T23:14:35.498Z,93.09
2022-11-22T23:17:27.289Z,93.15
2022-11-22T23:20:00.163Z,93.01
2022-11-22T23:22:33.104Z,92.96
2022-11-22T23:25:01.168Z,92.90
2022-11-22T23:27:34.200Z,92.53
2022-11-22T23:30:01.145Z,92.62
2022-11-22T23:32:31.968Z,92.36
2022-11-22T23:34:59.221Z,92.55
2022-11-22T23:37:27.161Z,92.63
2022-11-22T23:39:55.083Z,92.37
2022-11-22T23:45:15.108Z,92.09
2022-11-22T23:47:43.160Z,92.40
2022-11-22T23:50:11.081Z,92.02
2022-11-22T23:52:39.121Z,92.07
2022-11-22T23:55:07.466Z,92.17
2022-11-22T23:57:35.548Z,92.14
